createdAt,value
2017-07-15T00:01:06.818Z,99.99
2017-07-15T03:32:57.129Z,99.99
2017-07-15T03:34:06.199Z,99.99
2017-07-15T03:35:15.596Z,99.99
2017-07-15T03:36:24.623Z,99.99
2017-07-15T03:37:34.243Z,99.99
2017-07-15T03:38:43.299Z,99.99
2017-07-15T03:39:52.763Z,99.99
2017-07-15T03:41:02.212Z,99.99
2017-07-15T03:42:11.278Z,99.99
2017-07-15T03:43:20.814Z,99.99
2017-07-15T03:44:30.257Z,99.99
2017-07-15T03:45:39.294Z,99.99
2017-07-15T03:46:48.345Z,99.99
2017-07-15T03:47:57.831Z,99.99
2017-07-15T03:49:07.461Z,99.99
2017-07-15T03:50:16.526Z,99.99
2017-07-15T03:51:26.207Z,99.99
2017-07-15T03:52:35.643Z,99.99
2017-07-15T03:53:44.721Z,99.99
2017-07-15T03:54:53.910Z,99.99
2017-07-15T03:56:02.977Z,99.99
2017-07-15T03:57:12.480Z,99.99
2017-07-15T03:58:21.995Z,99.99
2017-07-15T03:59:31.947Z,99.99
2017-07-15T04:00:41.747Z,99.99
2017-07-15T04:01:51.474Z,99.99
2017-07-15T04:03:00.624Z,99.99
2017-07-15T04:04:10.634Z,99.99
2017-07-15T04:05:20.516Z,99.99
2017-07-15T04:06:31.881Z,99.99
2017-07-15T04:07:42.048Z,99.99
2017-07-15T04:08:52.222Z,99.99
2017-07-15T04:10:02.264Z,99.99
2017-07-15T04:11:12.752Z,99.99
2017-07-15T04:12:22.020Z,99.99
2017-07-15T04:13:30.880Z,99.99
2017-07-15T04:14:39.729Z,99.99
2017-07-15T04:15:48.582Z,99.99
2017-07-15T04:16:57.435Z,99.99
2017-07-15T04:18:06.390Z,99.99
2017-07-15T04:19:15.242Z,99.99
2017-07-15T04:20:24.096Z,99.99
2017-07-15T04:21:32.950Z,99.99
2017-07-15T04:22:41.805Z,99.99
2017-07-15T04:23:50.758Z,99.99
2017-07-15T04:24:59.611Z,99.99
2017-07-15T04:26:08.465Z,99.99
2017-07-15T04:27:17.327Z,99.99
2017-07-15T04:28:26.175Z,99.99
2017-07-15T04:29:35.129Z,99.99
2017-07-15T04:30:43.983Z,99.99
2017-07-15T04:31:52.837Z,99.99
2017-07-15T04:33:01.696Z,99.99
2017-07-15T04:34:10.548Z,99.99
2017-07-15T04:35:19.403Z,99.99
2017-07-15T04:36:28.258Z,99.99
2017-07-15T04:37:37.111Z,99.99
2017-07-15T04:38:45.967Z,99.99
2017-07-15T04:39:54.818Z,99.99
2017-07-15T04:41:03.670Z,99.99
2017-07-15T04:42:12.527Z,99.99
2017-07-15T04:43:21.380Z,99.99
2017-07-15T04:44:30.234Z,99.99
2017-07-15T04:45:39.088Z,99.99
2017-07-15T04:46:48.092Z,99.99
2017-07-15T04:47:56.947Z,99.99
2017-07-15T04:49:05.804Z,99.99
2017-07-15T04:50:14.660Z,99.99
2017-07-15T04:51:23.518Z,99.99
2017-07-15T04:52:32.416Z,99.99
2017-07-15T04:53:41.274Z,99.99
2017-07-15T04:54:50.125Z,99.99
2017-07-15T04:55:58.978Z,99.99
2017-07-15T04:57:07.882Z,99.99
2017-07-15T04:58:16.934Z,99.99
2017-07-15T04:59:25.785Z,99.99
2017-07-15T05:00:34.639Z,99.99
2017-07-15T05:01:43.492Z,99.99
2017-07-15T05:02:52.345Z,99.99
2017-07-15T05:04:01.299Z,99.99
2017-07-15T05:05:10.153Z,99.99
2017-07-15T05:06:19.008Z,99.99
2017-07-15T05:07:27.863Z,99.99
2017-07-15T05:08:36.719Z,99.99
2017-07-15T05:09:45.672Z,99.99
2017-07-15T05:10:54.525Z,99.99
2017-07-15T05:12:03.380Z,99.99
2017-07-15T05:13:12.234Z,99.99
2017-07-15T05:14:21.423Z,99.99
2017-07-15T05:15:30.279Z,99.99
2017-07-15T05:16:39.132Z,99.99
2017-07-15T05:17:47.985Z,99.99
2017-07-15T05:18:56.843Z,99.99
2017-07-15T05:20:05.697Z,99.99
2017-07-15T05:21:14.659Z,99.99
2017-07-15T05:22:23.840Z,99.99
2017-07-15T05:23:32.693Z,99.99
2017-07-15T05:24:41.547Z,99.99
2017-07-15T05:25:50.401Z,99.99
2017-07-15T05:26:59.504Z,99.99
2017-07-15T05:28:08.360Z,99.99
2017-07-15T05:29:17.217Z,99.99
2017-07-15T05:30:26.073Z,99.99
2017-07-15T05:31:34.927Z,99.99
2017-07-15T05:32:43.932Z,99.99
2017-07-15T05:33:52.786Z,99.99
2017-07-15T05:35:01.642Z,99.99
2017-07-15T05:36:10.496Z,99.99
2017-07-15T05:37:19.352Z,99.99
2017-07-15T05:38:28.359Z,99.99
2017-07-15T05:39:37.212Z,99.99
2017-07-15T05:40:46.064Z,99.99
2017-07-15T05:41:54.916Z,99.99
2017-07-15T05:43:03.773Z,99.99
2017-07-15T05:44:12.879Z,99.99
2017-07-15T05:45:21.733Z,99.99
2017-07-15T05:46:30.588Z,99.99
2017-07-15T05:47:39.441Z,99.99
2017-07-15T05:48:48.297Z,99.99
2017-07-15T05:49:57.153Z,99.99
2017-07-15T05:51:06.055Z,99.99
2017-07-15T05:52:14.909Z,99.99
2017-07-15T05:53:23.770Z,99.99
2017-07-15T05:54:32.625Z,99.99
2017-07-15T05:55:41.776Z,99.99
2017-07-15T05:56:50.633Z,99.99
2017-07-15T05:57:59.488Z,99.99
2017-07-15T05:59:08.346Z,99.99
2017-07-15T06:00:17.199Z,99.99
2017-07-15T06:01:26.455Z,99.99
2017-07-15T06:02:35.308Z,99.99
2017-07-15T06:03:44.161Z,99.99
2017-07-15T06:04:53.019Z,99.99
2017-07-15T06:06:01.876Z,99.99
2017-07-15T06:07:10.882Z,99.99
2017-07-15T06:08:19.737Z,99.99
2017-07-15T06:09:28.593Z,99.99
2017-07-15T06:10:37.450Z,99.99
2017-07-15T06:11:46.307Z,99.99
2017-07-15T06:12:55.314Z,99.99
2017-07-15T06:14:04.502Z,99.99
2017-07-15T06:15:13.358Z,99.99
2017-07-15T06:16:22.213Z,99.99
2017-07-15T06:17:31.402Z,99.99
2017-07-15T06:18:40.406Z,99.99
2017-07-15T06:19:49.260Z,99.99
2017-07-15T06:20:58.117Z,99.99
2017-07-15T06:22:06.973Z,99.99
2017-07-15T06:23:15.826Z,99.99
2017-07-15T06:24:24.683Z,99.99
2017-07-15T06:25:33.537Z,99.99
2017-07-15T06:26:42.394Z,99.99
2017-07-15T06:27:51.246Z,99.99
2017-07-15T06:29:00.103Z,99.99
2017-07-15T06:30:09.008Z,99.99
2017-07-15T06:31:17.863Z,99.99
2017-07-15T06:32:26.718Z,99.99
2017-07-15T06:33:35.576Z,99.99
2017-07-15T06:34:44.432Z,99.99
2017-07-15T06:35:53.339Z,99.99
2017-07-15T06:37:02.193Z,99.99
2017-07-15T06:38:11.048Z,99.99
2017-07-15T06:39:19.907Z,99.99
2017-07-15T06:40:28.764Z,99.99
2017-07-15T06:41:37.921Z,99.99
2017-07-15T06:42:46.776Z,99.99
2017-07-15T06:43:55.633Z,99.99
2017-07-15T06:45:04.492Z,99.99
2017-07-15T06:46:13.348Z,99.99
2017-07-15T06:47:22.253Z,99.99
2017-07-15T06:48:31.110Z,99.99
2017-07-15T06:49:40.317Z,99.99
2017-07-15T06:50:49.171Z,99.99
2017-07-15T06:51:58.029Z,99.99
2017-07-15T06:53:06.933Z,99.99
2017-07-15T06:54:15.789Z,99.99
2017-07-15T06:55:24.669Z,99.99
2017-07-15T06:56:33.499Z,99.99
2017-07-15T06:57:42.356Z,99.99
2017-07-15T06:58:51.261Z,99.99
2017-07-15T07:00:00.122Z,99.99
2017-07-15T07:01:08.977Z,99.99
2017-07-15T07:02:17.855Z,99.99
2017-07-15T07:03:26.688Z,99.99
2017-07-15T07:04:35.644Z,99.99
2017-07-15T07:05:44.499Z,99.99
2017-07-15T07:06:53.355Z,99.99
2017-07-15T07:08:02.211Z,99.99
2017-07-15T07:09:11.068Z,99.99
2017-07-15T07:10:20.171Z,99.99
2017-07-15T07:11:29.028Z,99.99
2017-07-15T07:12:37.883Z,99.99
2017-07-15T07:13:46.775Z,99.99
2017-07-15T07:14:55.594Z,99.99
2017-07-15T07:16:04.750Z,99.99
2017-07-15T07:17:13.945Z,99.99
2017-07-15T07:18:22.798Z,99.99
2017-07-15T07:19:31.653Z,99.99
2017-07-15T07:20:40.511Z,99.99
2017-07-15T07:21:49.419Z,99.99
2017-07-15T07:22:58.608Z,99.99
2017-07-15T07:24:07.464Z,99.99
2017-07-15T07:25:16.319Z,99.99
2017-07-15T07:26:25.175Z,99.99
2017-07-15T07:27:34.181Z,99.99
2017-07-15T07:28:43.370Z,99.99
2017-07-15T07:29:52.229Z,99.99
2017-07-15T07:31:01.414Z,99.99
2017-07-15T07:32:10.269Z,99.99
2017-07-15T07:33:19.226Z,99.99
2017-07-15T07:34:28.083Z,99.99
2017-07-15T07:35:36.938Z,99.99
2017-07-15T07:36:45.794Z,99.99
2017-07-15T07:37:54.653Z,99.99
2017-07-15T07:39:03.807Z,99.99
2017-07-15T07:40:12.667Z,99.99
2017-07-15T07:41:21.523Z,99.99
2017-07-15T07:42:30.378Z,99.99
2017-07-15T07:43:39.236Z,99.99
2017-07-15T07:44:48.294Z,99.99
2017-07-15T07:45:57.149Z,99.99
2017-07-15T07:47:06.005Z,99.99
2017-07-15T07:48:14.859Z,99.99
2017-07-15T07:49:24.054Z,99.99
2017-07-15T07:50:33.212Z,99.99
2017-07-15T07:51:42.066Z,99.99
2017-07-15T07:52:50.923Z,99.99
2017-07-15T07:53:59.780Z,99.99
2017-07-15T07:55:08.637Z,99.99
2017-07-15T07:56:17.593Z,99.99
2017-07-15T07:57:26.451Z,99.99
2017-07-15T07:58:35.306Z,99.99
2017-07-15T07:59:44.164Z,99.99
2017-07-15T08:00:53.021Z,99.99
2017-07-15T08:02:01.875Z,99.99
2017-07-15T08:03:10.729Z,99.99
2017-07-15T08:04:19.585Z,99.99
2017-07-15T08:05:28.441Z,99.99
2017-07-15T08:06:37.299Z,99.99
2017-07-15T08:07:46.306Z,99.99
2017-07-15T08:08:55.162Z,99.99
2017-07-15T08:10:04.018Z,99.99
2017-07-15T08:11:12.877Z,99.99
2017-07-15T08:12:21.732Z,99.99
2017-07-15T08:13:30.591Z,99.99
2017-07-15T08:14:39.447Z,99.99
2017-07-15T08:15:48.306Z,99.99
2017-07-15T08:16:57.164Z,99.99
2017-07-15T08:18:06.022Z,99.99
2017-07-15T08:19:14.883Z,99.99
2017-07-15T08:20:23.735Z,99.99
2017-07-15T08:21:32.594Z,99.99
2017-07-15T08:22:41.449Z,99.99
2017-07-15T08:23:50.305Z,99.99
2017-07-15T08:24:59.312Z,99.99
2017-07-15T08:26:08.168Z,99.99
2017-07-15T08:27:17.026Z,99.99
2017-07-15T08:28:25.885Z,99.99
2017-07-15T08:29:34.744Z,99.99
2017-07-15T08:30:43.602Z,99.99
2017-07-15T08:31:52.460Z,99.99
2017-07-15T08:33:01.318Z,99.99
2017-07-15T08:34:10.177Z,99.99
2017-07-15T08:35:19.033Z,99.99
2017-07-15T08:36:28.042Z,99.99
2017-07-15T08:37:36.899Z,99.99
2017-07-15T08:38:45.759Z,99.99
2017-07-15T08:39:54.615Z,99.99
2017-07-15T08:41:03.474Z,99.99
2017-07-15T08:42:12.484Z,99.99
2017-07-15T08:43:21.341Z,99.99
2017-07-15T08:44:30.197Z,99.99
2017-07-15T08:45:39.055Z,99.99
2017-07-15T08:46:47.913Z,99.99
2017-07-15T08:47:57.254Z,99.99
2017-07-15T08:49:06.446Z,99.99
2017-07-15T08:50:15.304Z,99.99
2017-07-15T08:51:24.163Z,99.99
2017-07-15T08:52:33.021Z,99.99
2017-07-15T08:53:42.034Z,99.99
2017-07-15T08:54:50.895Z,99.99
2017-07-15T08:55:59.753Z,99.99
2017-07-15T08:57:08.612Z,99.99
2017-07-15T08:58:17.472Z,99.99
2017-07-15T08:59:26.632Z,99.99
2017-07-15T09:00:35.488Z,99.99
2017-07-15T09:01:44.346Z,99.99
2017-07-15T09:02:53.205Z,99.99
2017-07-15T09:04:02.065Z,99.99
2017-07-15T09:05:11.261Z,99.2
2017-07-15T09:06:20.120Z,99.99
2017-07-15T09:07:28.979Z,99.99
2017-07-15T09:08:37.837Z,99.2
2017-07-15T09:09:46.698Z,99.99
2017-07-15T09:10:55.757Z,99.99
2017-07-15T09:12:04.615Z,99.99
2017-07-15T09:13:13.472Z,99.99
2017-07-15T09:14:22.332Z,99.99
2017-07-15T09:15:31.190Z,99.99
2017-07-15T09:16:40.352Z,98.34
2017-07-15T09:17:49.544Z,93.92
2017-07-15T09:18:58.403Z,95.98
2017-07-15T09:20:07.263Z,99.68
2017-07-15T09:21:16.123Z,96.8
2017-07-15T09:22:25.284Z,98.63
2017-07-15T09:23:34.142Z,90.84
2017-07-15T09:24:43.002Z,90.99
2017-07-15T09:25:51.861Z,90.8
2017-07-15T09:27:00.722Z,93.68
2017-07-15T09:28:09.885Z,90.31
2017-07-15T09:29:18.746Z,94.83
2017-07-15T09:30:27.606Z,99.44
2017-07-15T09:31:36.467Z,99.25
2017-07-15T09:32:45.325Z,98.48
2017-07-15T09:33:54.234Z,93.19
2017-07-15T09:35:03.096Z,93.58
2017-07-15T09:36:11.951Z,95.94
2017-07-15T09:37:20.809Z,93.24
2017-07-15T09:38:29.669Z,97.62
2017-07-15T09:39:38.914Z,97.09
2017-07-15T09:40:48.111Z,95.89
2017-07-15T09:41:56.967Z,96.08
2017-07-15T09:43:05.827Z,91.56
2017-07-15T09:44:14.683Z,92.33
2017-07-15T09:45:23.743Z,91.56
2017-07-15T09:46:32.606Z,94.54
2017-07-15T09:47:41.463Z,92.23
2017-07-15T09:48:50.318Z,95.5
2017-07-15T09:49:59.177Z,91.27
2017-07-15T09:51:08.085Z,93.29
2017-07-15T09:52:16.946Z,99.99
2017-07-15T09:53:25.803Z,99.06
2017-07-15T09:54:34.663Z,97.04
2017-07-15T09:55:43.522Z,99.21
2017-07-15T09:56:52.682Z,99.11
2017-07-15T09:58:01.541Z,94.73
2017-07-15T09:59:10.399Z,93.91
2017-07-15T10:00:19.266Z,94.88
2017-07-15T10:01:28.118Z,95.75
2017-07-15T10:02:37.027Z,90.07
2017-07-15T10:03:45.891Z,94.3
2017-07-15T10:04:54.750Z,89.4
2017-07-15T10:06:03.612Z,91.42
2017-07-15T10:07:12.473Z,91.32
2017-07-15T10:08:21.437Z,89.59
2017-07-15T10:09:30.296Z,91.13
2017-07-15T10:10:39.157Z,93.63
2017-07-15T10:11:48.017Z,88.24
2017-07-15T10:12:56.877Z,88.63
2017-07-15T10:14:05.990Z,95.26
2017-07-15T10:15:14.850Z,88.63
2017-07-15T10:16:24.046Z,91.13
2017-07-15T10:17:32.906Z,90.41
2017-07-15T10:18:41.768Z,91.08
2017-07-15T10:19:51.262Z,88.67
2017-07-15T10:21:00.123Z,89.25
2017-07-15T10:22:08.982Z,89.44
2017-07-15T10:23:17.845Z,89.54
2017-07-15T10:24:27.036Z,91.17
2017-07-15T10:25:35.997Z,88.39
2017-07-15T10:26:44.859Z,89.35
2017-07-15T10:27:53.720Z,90.12
2017-07-15T10:29:02.582Z,88.96
2017-07-15T10:30:11.442Z,94.64
2017-07-15T10:31:20.301Z,89.54
2017-07-15T10:32:29.161Z,91.36
2017-07-15T10:33:38.025Z,89.39
2017-07-15T10:34:46.888Z,94.4
2017-07-15T10:35:55.749Z,88.57
2017-07-15T10:37:04.662Z,90.45
2017-07-15T10:38:13.521Z,89.54
2017-07-15T10:39:22.378Z,88.62
2017-07-15T10:40:31.239Z,98.58
2017-07-15T10:41:40.099Z,90.12
2017-07-15T10:42:49.107Z,90.79
2017-07-15T10:43:57.967Z,92.29
2017-07-15T10:45:06.827Z,90.75
2017-07-15T10:46:15.688Z,91.37
2017-07-15T10:47:24.550Z,92.33
2017-07-15T10:48:33.761Z,93.01
2017-07-15T10:49:42.620Z,92.91
2017-07-15T10:50:51.480Z,92.91
2017-07-15T10:52:00.338Z,95.36
2017-07-15T10:53:09.198Z,93.92
2017-07-15T10:54:18.358Z,94.73
2017-07-15T10:55:27.217Z,93.82
2017-07-15T10:56:36.076Z,94.49
2017-07-15T10:57:44.934Z,94.78
2017-07-15T10:58:53.794Z,94.4
2017-07-15T11:00:02.901Z,96.99
2017-07-15T11:01:11.801Z,94.4
2017-07-15T11:02:20.635Z,94.01
2017-07-15T11:03:29.494Z,93.96
2017-07-15T11:04:38.352Z,94.21
2017-07-15T11:05:47.543Z,92.57
2017-07-15T11:06:56.404Z,92.72
2017-07-15T11:08:05.261Z,92.91
2017-07-15T11:09:14.121Z,90.89
2017-07-15T11:10:22.980Z,89.74
2017-07-15T11:11:31.838Z,88.3
2017-07-15T11:12:40.700Z,88.59
2017-07-15T11:13:49.559Z,89.54
2017-07-15T11:14:58.418Z,89.16
2017-07-15T11:16:07.276Z,91.47
2017-07-15T11:17:16.183Z,89.45
2017-07-15T11:18:25.045Z,89.07
2017-07-15T11:19:33.904Z,88.97
2017-07-15T11:20:42.760Z,93.01
2017-07-15T11:21:51.619Z,88.53
2017-07-15T11:23:00.529Z,88.53
2017-07-15T11:24:09.388Z,88.73
2017-07-15T11:25:18.915Z,87.86
2017-07-15T11:26:27.777Z,87.62
2017-07-15T11:27:36.636Z,86.71
2017-07-15T11:28:45.495Z,86.42
2017-07-15T11:29:54.356Z,87.38
2017-07-15T11:31:03.217Z,88.63
2017-07-15T11:32:12.078Z,90.12
2017-07-15T11:33:20.941Z,91.17
2017-07-15T11:34:29.950Z,91.66
2017-07-15T11:35:38.811Z,88.87
2017-07-15T11:36:47.673Z,85.98
2017-07-15T11:37:56.535Z,89.06
2017-07-15T11:39:05.394Z,81.46
2017-07-15T11:40:14.554Z,80.3
2017-07-15T11:41:23.414Z,80.88
2017-07-15T11:42:32.274Z,79.38
2017-07-15T11:43:41.134Z,81.02
2017-07-15T11:44:49.992Z,83.52
2017-07-15T11:45:59.005Z,83.04
2017-07-15T11:47:07.863Z,82.17
2017-07-15T11:48:16.726Z,80.06
2017-07-15T11:49:25.587Z,78.65
2017-07-15T11:50:34.454Z,79.77
2017-07-15T11:51:43.414Z,79.19
2017-07-15T11:52:52.277Z,80.38
2017-07-15T11:54:01.146Z,80.15
2017-07-15T11:55:10.005Z,82.08
2017-07-15T11:56:18.864Z,81.73
2017-07-15T11:57:27.978Z,79.33
2017-07-15T11:58:36.840Z,79.96
2017-07-15T11:59:45.700Z,80.19
2017-07-15T12:00:54.564Z,79.81
2017-07-15T12:02:03.426Z,79.81
2017-07-15T12:03:12.437Z,77.44
2017-07-15T12:04:21.300Z,78.27
2017-07-15T12:05:30.499Z,78.36
2017-07-15T12:06:39.363Z,79.9
2017-07-15T12:07:48.563Z,79.52
2017-07-15T12:08:57.426Z,78.88
2017-07-15T12:10:06.292Z,80.62
2017-07-15T12:11:15.159Z,79.66
2017-07-15T12:12:24.022Z,77.48
2017-07-15T12:13:32.886Z,80.69
2017-07-15T12:14:42.156Z,80.02
2017-07-15T12:15:51.018Z,75.14
2017-07-15T12:16:59.884Z,75.24
2017-07-15T12:18:08.751Z,74.37
2017-07-15T12:19:17.618Z,71.12
2017-07-15T12:20:26.637Z,74.02
2017-07-15T12:21:35.505Z,72.19
2017-07-15T12:22:44.374Z,63.92
2017-07-15T12:23:53.242Z,71.7
2017-07-15T12:25:02.110Z,72.83
2017-07-15T12:26:10.980Z,68.49
2017-07-15T12:27:19.850Z,71.7
2017-07-15T12:28:28.718Z,67.27
2017-07-15T12:29:37.588Z,65.82
2017-07-15T12:30:46.456Z,67.43
2017-07-15T12:31:55.373Z,66.49
2017-07-15T12:33:04.242Z,65.82
2017-07-15T12:34:13.136Z,71.42
2017-07-15T12:35:21.977Z,68.71
2017-07-15T12:36:30.846Z,66.91
2017-07-15T12:37:40.013Z,68.55
2017-07-15T12:38:48.883Z,71.26
2017-07-15T12:39:57.751Z,69.32
2017-07-15T12:41:06.621Z,73.48
2017-07-15T12:42:15.491Z,71.12
2017-07-15T12:43:24.361Z,71.12
2017-07-15T12:44:33.229Z,71.42
2017-07-15T12:45:42.097Z,74.6
2017-07-15T12:46:50.964Z,74.6
2017-07-15T12:47:59.828Z,74.31
2017-07-15T12:49:08.794Z,73.35
2017-07-15T12:50:17.659Z,73.25
2017-07-15T12:51:26.863Z,74.18
2017-07-15T12:52:35.731Z,74.85
2017-07-15T12:53:44.596Z,73.11
2017-07-15T12:54:53.708Z,76.55
2017-07-15T12:56:02.573Z,74.82
2017-07-15T12:57:11.435Z,74.72
2017-07-15T12:58:20.297Z,73.85
2017-07-15T12:59:29.160Z,74.91
2017-07-15T13:00:38.125Z,76.23
2017-07-15T13:01:46.993Z,74.3
2017-07-15T13:02:55.856Z,74.97
2017-07-15T13:04:04.720Z,74.45
2017-07-15T13:05:13.579Z,74.84
2017-07-15T13:06:22.494Z,75.16
2017-07-15T13:07:31.357Z,75.93
2017-07-15T13:08:40.218Z,75.74
2017-07-15T13:09:49.420Z,67.74
2017-07-15T13:10:58.624Z,68.13
2017-07-15T13:12:07.487Z,68.16
2017-07-15T13:13:16.351Z,68.26
2017-07-15T13:14:25.217Z,65.82
2017-07-15T13:15:34.085Z,64.11
2017-07-15T13:16:42.951Z,65.85
2017-07-15T13:17:51.969Z,66.82
2017-07-15T13:19:00.837Z,64.76
2017-07-15T13:20:09.708Z,64.01
2017-07-15T13:21:18.576Z,66.4
2017-07-15T13:22:27.443Z,67.75
2017-07-15T13:23:36.411Z,66.2
2017-07-15T13:24:45.279Z,66.88
2017-07-15T13:25:54.483Z,69
2017-07-15T13:27:03.351Z,69.62
2017-07-15T13:28:12.218Z,67.59
2017-07-15T13:29:21.139Z,67.78
2017-07-15T13:30:30.009Z,68.36
2017-07-15T13:31:38.875Z,66.63
2017-07-15T13:32:47.740Z,68.26
2017-07-15T13:33:56.610Z,67.3
2017-07-15T13:35:05.779Z,68.17
2017-07-15T13:36:14.649Z,67.49
2017-07-15T13:37:23.522Z,65.11
2017-07-15T13:38:32.391Z,62.79
2017-07-15T13:39:41.260Z,61.66
2017-07-15T13:40:50.659Z,61.76
2017-07-15T13:41:59.531Z,62.56
2017-07-15T13:43:08.400Z,62.47
2017-07-15T13:44:17.273Z,61.3
2017-07-15T13:45:26.145Z,60.85
2017-07-15T13:46:35.068Z,61.05
2017-07-15T13:47:43.941Z,59.79
2017-07-15T13:48:52.812Z,61.24
2017-07-15T13:50:01.684Z,61.05
2017-07-15T13:51:10.556Z,63.37
2017-07-15T13:52:19.477Z,62.11
2017-07-15T13:53:28.352Z,64.34
2017-07-15T13:54:37.225Z,64.24
2017-07-15T13:55:46.100Z,64.11
2017-07-15T13:56:54.968Z,62.79
2017-07-15T13:58:04.139Z,63.95
2017-07-15T13:59:13.011Z,60.75
2017-07-15T14:00:21.883Z,61.27
2017-07-15T14:01:30.755Z,61.66
2017-07-15T14:02:39.626Z,59.63
2017-07-15T14:03:48.600Z,57.81
2017-07-15T14:04:57.476Z,57.62
2017-07-15T14:06:06.351Z,59
2017-07-15T14:07:15.224Z,58.69
2017-07-15T14:08:24.434Z,58.69
2017-07-15T14:09:33.456Z,60.82
2017-07-15T14:10:42.331Z,60.62
2017-07-15T14:11:51.207Z,59.23
2017-07-15T14:13:00.084Z,59.82
2017-07-15T14:14:08.956Z,61.95
2017-07-15T14:15:18.078Z,61.66
2017-07-15T14:16:26.949Z,62.14
2017-07-15T14:17:35.831Z,61.36
2017-07-15T14:18:44.703Z,62.82
2017-07-15T14:19:53.572Z,61.76
2017-07-15T14:21:02.643Z,61.72
2017-07-15T14:22:11.510Z,60.66
2017-07-15T14:23:20.379Z,64.43
2017-07-15T14:24:29.247Z,63.46
2017-07-15T14:25:38.117Z,65.01
2017-07-15T14:26:47.136Z,64.11
2017-07-15T14:27:56.001Z,63.14
2017-07-15T14:29:04.868Z,63.37
2017-07-15T14:30:13.737Z,63.08
2017-07-15T14:31:22.608Z,64.07
2017-07-15T14:32:31.531Z,61.36
2017-07-15T14:33:40.401Z,59.75
2017-07-15T14:34:49.271Z,58.78
2017-07-15T14:35:58.143Z,58.78
2017-07-15T14:37:07.017Z,59.63
2017-07-15T14:38:16.138Z,59.69
2017-07-15T14:39:25.008Z,61.72
2017-07-15T14:40:33.883Z,61.05
2017-07-15T14:41:42.754Z,61.15
2017-07-15T14:42:51.626Z,61.85
2017-07-15T14:44:00.545Z,61.27
2017-07-15T14:45:09.415Z,61.46
2017-07-15T14:46:18.284Z,62.3
2017-07-15T14:47:27.155Z,62.59
2017-07-15T14:48:36.022Z,62.69
2017-07-15T14:49:45.529Z,62.01
2017-07-15T14:50:54.398Z,60.82
2017-07-15T14:52:03.267Z,61.3
2017-07-15T14:53:12.133Z,60.27
2017-07-15T14:54:21.005Z,61.15
2017-07-15T14:55:30.021Z,61.43
2017-07-15T14:56:38.890Z,60.75
2017-07-15T14:57:47.763Z,60.53
2017-07-15T14:58:56.625Z,60.82
2017-07-15T15:00:05.496Z,60.44
2017-07-15T15:01:14.419Z,59.98
2017-07-15T15:02:23.288Z,59.69
2017-07-15T15:03:32.159Z,59.98
2017-07-15T15:04:41.029Z,60.95
2017-07-15T15:05:49.897Z,60.85
2017-07-15T15:06:59.018Z,59.21
2017-07-15T15:08:07.886Z,60.66
2017-07-15T15:09:16.755Z,61.4
2017-07-15T15:10:25.622Z,61.69
2017-07-15T15:11:34.489Z,61.3
2017-07-15T15:12:43.355Z,61.02
2017-07-15T15:13:52.222Z,61.4
2017-07-15T15:15:01.091Z,62.66
2017-07-15T15:16:09.959Z,62.66
2017-07-15T15:17:18.826Z,62.95
2017-07-15T15:18:27.843Z,63.24
2017-07-15T15:19:36.710Z,61.69
2017-07-15T15:20:45.579Z,61.63
2017-07-15T15:21:54.447Z,60.47
2017-07-15T15:23:03.316Z,60.57
2017-07-15T15:24:12.234Z,60.88
2017-07-15T15:25:21.104Z,61.66
2017-07-15T15:26:29.970Z,58.27
2017-07-15T15:27:38.839Z,59.43
2017-07-15T15:28:47.710Z,59.27
2017-07-15T15:29:56.881Z,59.56
2017-07-15T15:31:05.752Z,58.72
2017-07-15T15:32:14.622Z,58.42
2017-07-15T15:33:23.494Z,58.36
2017-07-15T15:34:32.362Z,58.42
2017-07-15T15:35:41.382Z,58.62
2017-07-15T15:36:50.251Z,58.3
2017-07-15T15:37:59.123Z,58.72
2017-07-15T15:39:07.993Z,57.26
2017-07-15T15:40:16.864Z,56.51
2017-07-15T15:41:25.736Z,56.41
2017-07-15T15:42:34.608Z,55.83
2017-07-15T15:43:43.479Z,54.8
2017-07-15T15:44:52.349Z,54.6
2017-07-15T15:46:01.224Z,54.02
2017-07-15T15:47:10.147Z,54.63
2017-07-15T15:48:19.020Z,54.72
2017-07-15T15:49:27.894Z,54.72
2017-07-15T15:50:36.769Z,55.69
2017-07-15T15:51:45.976Z,54.8
2017-07-15T15:52:54.951Z,53.63
2017-07-15T15:54:03.824Z,53.63
2017-07-15T15:55:12.700Z,55.67
2017-07-15T15:56:21.576Z,54.11
2017-07-15T15:57:30.448Z,55.67
2017-07-15T15:58:39.625Z,56.83
2017-07-15T15:59:48.497Z,56.81
2017-07-15T16:00:57.368Z,58.45
2017-07-15T16:02:06.240Z,56.51
2017-07-15T16:03:15.112Z,55.44
2017-07-15T16:04:24.036Z,53.63
2017-07-15T16:05:33.240Z,54.19
2017-07-15T16:06:42.113Z,55.54
2017-07-15T16:07:50.982Z,52.95
2017-07-15T16:08:59.857Z,54.19
2017-07-15T16:10:08.780Z,53.05
2017-07-15T16:11:17.651Z,54.67
2017-07-15T16:12:26.525Z,53.7
2017-07-15T16:13:35.395Z,55.38
2017-07-15T16:14:44.268Z,54.7
2017-07-15T16:15:53.393Z,54.7
2017-07-15T16:17:02.264Z,54.7
2017-07-15T16:18:11.138Z,53.73
2017-07-15T16:19:20.012Z,54.31
2017-07-15T16:20:28.881Z,56.35
2017-07-15T16:21:37.803Z,52.86
2017-07-15T16:22:46.675Z,53.24
2017-07-15T16:23:55.549Z,52.4
2017-07-15T16:25:04.420Z,52.33
2017-07-15T16:26:13.296Z,51.75
2017-07-15T16:27:22.271Z,51.57
2017-07-15T16:28:31.142Z,51.55
2017-07-15T16:29:40.015Z,50.8
2017-07-15T16:30:48.890Z,52.81
2017-07-15T16:31:57.762Z,53.78
2017-07-15T16:33:06.635Z,51.55
2017-07-15T16:34:15.510Z,51.84
2017-07-15T16:35:24.382Z,52.01
2017-07-15T16:36:33.262Z,52.2
2017-07-15T16:37:42.133Z,53.15
2017-07-15T16:38:51.154Z,53.47
2017-07-15T16:40:00.025Z,53.24
2017-07-15T16:41:08.897Z,54.31
2017-07-15T16:42:17.769Z,53.37
2017-07-15T16:43:26.639Z,52.88
2017-07-15T16:44:35.810Z,53.08
2017-07-15T16:45:44.681Z,53.66
2017-07-15T16:46:53.551Z,53.56
2017-07-15T16:48:02.422Z,53.75
2017-07-15T16:49:11.293Z,52.78
2017-07-15T16:50:20.265Z,54.27
2017-07-15T16:51:29.134Z,53.66
2017-07-15T16:52:38.005Z,53.47
2017-07-15T16:53:46.875Z,53.66
2017-07-15T16:54:55.752Z,55.38
2017-07-15T16:56:04.768Z,55.26
2017-07-15T16:57:13.640Z,54.86
2017-07-15T16:58:22.517Z,54.58
2017-07-15T16:59:31.379Z,55.26
2017-07-15T17:00:40.246Z,53.61
2017-07-15T17:01:49.872Z,54.45
2017-07-15T17:02:58.741Z,55.62
2017-07-15T17:04:07.610Z,55.26
2017-07-15T17:05:16.478Z,56.49
2017-07-15T17:06:25.347Z,55.44
2017-07-15T17:07:34.264Z,54.74
2017-07-15T17:08:43.132Z,54.64
2017-07-15T17:09:52.000Z,54.16
2017-07-15T17:11:00.873Z,55.74
2017-07-15T17:12:09.738Z,54.55
2017-07-15T17:13:18.705Z,53.77
2017-07-15T17:14:27.574Z,55.54
2017-07-15T17:15:36.472Z,53.89
2017-07-15T17:16:45.318Z,53.15
2017-07-15T17:17:54.189Z,52.86
2017-07-15T17:19:03.207Z,51.72
2017-07-15T17:20:12.077Z,51.89
2017-07-15T17:21:20.945Z,52.56
2017-07-15T17:22:30.150Z,49.68
2017-07-15T17:23:39.020Z,49.87
2017-07-15T17:24:48.142Z,49.87
2017-07-15T17:25:57.011Z,50.74
2017-07-15T17:27:05.883Z,50.56
2017-07-15T17:28:14.755Z,51.04
2017-07-15T17:29:23.626Z,51.04
2017-07-15T17:30:32.649Z,51.72
2017-07-15T17:31:41.518Z,50.74
2017-07-15T17:32:50.721Z,50.56
2017-07-15T17:33:59.591Z,51.98
2017-07-15T17:35:08.461Z,52.28
2017-07-15T17:36:17.379Z,52.76
2017-07-15T17:37:26.245Z,52.76
2017-07-15T17:38:35.112Z,52.66
2017-07-15T17:39:43.982Z,54.19
2017-07-15T17:40:52.852Z,52.18
2017-07-15T17:42:01.721Z,51.57
2017-07-15T17:43:10.623Z,52.34
2017-07-15T17:44:19.460Z,52.73
2017-07-15T17:45:28.327Z,52.71
2017-07-15T17:46:37.198Z,53.29
2017-07-15T17:47:46.065Z,54.55
2017-07-15T17:48:54.932Z,52.71
2017-07-15T17:50:03.801Z,53.55
2017-07-15T17:51:12.670Z,53.94
2017-07-15T17:52:21.539Z,53.55
2017-07-15T17:53:30.556Z,53.97
2017-07-15T17:54:39.422Z,54.16
2017-07-15T17:55:48.295Z,53.94
2017-07-15T17:56:57.161Z,53.94
2017-07-15T17:58:06.029Z,55.94
2017-07-15T17:59:15.047Z,55.58
2017-07-15T18:00:23.914Z,54.33
2017-07-15T18:01:32.780Z,54.59
2017-07-15T18:02:41.650Z,54.21
2017-07-15T18:03:50.516Z,55.17
2017-07-15T18:04:59.685Z,54.49
2017-07-15T18:06:08.552Z,54.88
2017-07-15T18:07:17.419Z,58.17
2017-07-15T18:08:26.286Z,56.7
2017-07-15T18:09:35.154Z,57.18
2017-07-15T18:10:44.070Z,57.86
2017-07-15T18:11:52.936Z,57.3
2017-07-15T18:13:01.801Z,58.37
2017-07-15T18:14:10.666Z,57.86
2017-07-15T18:15:19.868Z,57.28
2017-07-15T18:16:28.835Z,57.15
2017-07-15T18:17:37.700Z,58.4
2017-07-15T18:18:46.567Z,59.08
2017-07-15T18:19:55.431Z,58.76
2017-07-15T18:21:04.295Z,58.12